createdAt,value
2018-03-01T00:00:50.752Z,53.90
2018-03-01T00:03:19.659Z,54.15
2018-03-01T00:05:49.042Z,53.95
2018-03-01T00:08:18.475Z,54.18
2018-03-01T00:10:49.160Z,54.46
2018-03-01T00:13:20.767Z,54.17
2018-03-01T00:15:51.354Z,54.35
2018-03-01T00:18:22.673Z,54.61
2018-03-01T00:20:53.116Z,54.81
2018-03-01T00:23:23.952Z,55.21
2018-03-01T00:25:54.284Z,54.97
2018-03-01T00:28:25.777Z,55.30
2018-03-01T00:30:56.023Z,55.29
2018-03-01T00:33:25.661Z,55.29
2018-03-01T00:35:58.333Z,55.11
2018-03-01T00:38:29.076Z,55.12
2018-03-01T00:41:00.703Z,55.03
2018-03-01T00:43:29.932Z,54.83
2018-03-01T00:46:02.072Z,54.90
2018-03-01T00:48:32.245Z,55.22
2018-03-01T00:51:02.587Z,55.42
2018-03-01T00:53:33.115Z,55.69
2018-03-01T00:56:03.558Z,55.86
2018-03-01T00:58:36.629Z,55.87
2018-03-01T01:01:08.452Z,55.83
2018-03-01T01:03:40.247Z,55.97
2018-03-01T01:06:09.579Z,56.25
2018-03-01T01:08:41.090Z,55.68
2018-03-01T01:11:12.191Z,55.85
2018-03-01T01:13:41.876Z,56.44
2018-03-01T01:16:14.245Z,56.23
2018-03-01T01:18:44.815Z,56.27
2018-03-01T01:21:14.475Z,56.04
2018-03-01T01:23:44.754Z,56.31
2018-03-01T01:26:16.024Z,56.63
2018-03-01T01:28:45.698Z,56.55
2018-03-01T01:31:16.081Z,56.59
2018-03-01T01:33:47.127Z,56.55
2018-03-01T01:36:19.485Z,56.61
2018-03-01T01:38:50.356Z,56.42
2018-03-01T01:41:20.979Z,56.85
2018-03-01T01:43:52.494Z,56.67
2018-03-01T01:46:22.389Z,56.43
2018-03-01T01:48:52.744Z,56.83
2018-03-01T01:51:22.831Z,56.61
2018-03-01T01:53:54.780Z,56.49
2018-03-01T01:56:28.109Z,56.55
2018-03-01T01:58:57.476Z,56.64
2018-03-01T02:01:29.237Z,56.44
2018-03-01T02:03:58.656Z,56.37
2018-03-01T02:06:30.363Z,56.46
2018-03-01T02:09:01.267Z,56.72
2018-03-01T02:11:30.687Z,56.43
2018-03-01T02:14:02.425Z,56.73
2018-03-01T02:16:32.920Z,56.81
2018-03-01T02:19:03.667Z,56.74
2018-03-01T02:21:33.332Z,57.01
2018-03-01T02:24:04.371Z,56.42
2018-03-01T02:26:37.296Z,56.52
2018-03-01T02:29:07.232Z,56.76
2018-03-01T02:31:37.943Z,56.33
2018-03-01T02:34:07.968Z,57.02
2018-03-01T02:36:39.472Z,56.92
2018-03-01T02:39:10.487Z,56.95
2018-03-01T02:41:39.711Z,57.11
2018-03-01T02:44:11.443Z,57.27
2018-03-01T02:46:42.645Z,57.23
2018-03-01T02:49:13.578Z,57.44
2018-03-01T02:51:43.117Z,57.21
2018-03-01T02:54:17.414Z,57.52
2018-03-01T02:56:48.850Z,57.42
2018-03-01T02:59:20.311Z,57.45
2018-03-01T03:01:51.159Z,57.25
2018-03-01T03:04:23.388Z,57.07
2018-03-01T03:06:53.908Z,57.38
2018-03-01T03:09:23.879Z,57.52
2018-03-01T03:12:01.051Z,57.33
2018-03-01T03:14:30.622Z,57.25
2018-03-01T03:17:01.673Z,57.56
2018-03-01T03:19:30.759Z,57.69
2018-03-01T03:22:00.856Z,57.68
2018-03-01T03:24:30.395Z,58.07
2018-03-01T03:27:01.469Z,58.18
2018-03-01T03:29:33.251Z,58.02
2018-03-01T03:32:04.259Z,57.96
2018-03-01T03:34:34.348Z,58.53
2018-03-01T03:37:03.711Z,58.96
2018-03-01T03:39:33.837Z,58.91
2018-03-01T03:42:05.292Z,58.47
2018-03-01T03:44:36.670Z,58.77
2018-03-01T03:47:09.796Z,59.46
2018-03-01T03:49:39.296Z,58.02
2018-03-01T03:52:08.716Z,58.97
2018-03-01T03:54:38.669Z,59.62
2018-03-01T03:57:09.740Z,59.21
2018-03-01T03:59:40.738Z,58.25
2018-03-01T04:02:10.583Z,59.21
2018-03-01T04:04:41.291Z,58.08
2018-03-01T04:07:12.822Z,58.61
2018-03-01T04:09:43.380Z,59.62
2018-03-01T04:12:14.314Z,59.06
2018-03-01T04:14:45.515Z,59.41
2018-03-01T04:17:15.373Z,59.80
2018-03-01T04:19:46.990Z,59.29
2018-03-01T04:22:20.841Z,59.67
2018-03-01T04:24:50.848Z,58.75
2018-03-01T04:27:21.373Z,58.54
2018-03-01T04:29:51.597Z,59.63
2018-03-01T04:32:24.358Z,59.78
2018-03-01T04:34:53.750Z,59.89
2018-03-01T04:37:25.765Z,59.98
2018-03-01T04:39:54.911Z,58.72
2018-03-01T04:42:26.612Z,57.54
2018-03-01T04:44:57.075Z,58.08
2018-03-01T04:47:28.121Z,58.30
2018-03-01T04:49:59.105Z,58.26
2018-03-01T04:52:29.514Z,57.90
2018-03-01T04:55:00.433Z,58.71
2018-03-01T04:57:31.192Z,60.28
2018-03-01T05:00:02.260Z,59.76
2018-03-01T05:02:36.706Z,58.87
2018-03-01T05:05:06.440Z,60.68
2018-03-01T05:07:36.110Z,61.26
2018-03-01T05:10:07.660Z,60.56
2018-03-01T05:12:38.064Z,61.76
2018-03-01T05:15:09.104Z,60.88
2018-03-01T05:17:39.627Z,61.51
2018-03-01T05:20:10.051Z,61.13
2018-03-01T05:22:40.895Z,61.56
2018-03-01T05:25:11.663Z,60.47
2018-03-01T05:27:43.660Z,61.24
2018-03-01T05:30:14.538Z,61.69
2018-03-01T05:32:45.147Z,62.36
2018-03-01T05:35:15.727Z,61.51
2018-03-01T05:37:47.222Z,60.87
2018-03-01T05:40:18.531Z,62.54
2018-03-01T05:42:49.169Z,60.42
2018-03-01T05:45:20.874Z,61.05
2018-03-01T05:47:52.511Z,61.21
2018-03-01T05:50:21.950Z,62.44
2018-03-01T05:52:53.829Z,61.87
2018-03-01T05:55:26.610Z,61.43
2018-03-01T05:57:55.791Z,61.76
2018-03-01T06:00:25.624Z,63.25
2018-03-01T06:02:55.364Z,63.54
2018-03-01T06:05:29.003Z,64.14
2018-03-01T06:07:58.755Z,63.61
2018-03-01T06:10:29.073Z,63.39
2018-03-01T06:13:00.408Z,62.73
2018-03-01T06:15:30.501Z,61.92
2018-03-01T06:18:01.226Z,62.92
2018-03-01T06:20:34.004Z,63.05
2018-03-01T06:23:05.502Z,61.58
2018-03-01T06:25:37.491Z,61.49
2018-03-01T06:28:09.085Z,62.31
2018-03-01T06:30:38.667Z,63.41
2018-03-01T06:33:08.379Z,63.46
2018-03-01T06:35:40.764Z,63.91
2018-03-01T06:38:09.889Z,63.51
2018-03-01T06:40:41.150Z,63.79
2018-03-01T06:43:11.798Z,65.87
2018-03-01T06:45:43.945Z,65.92
2018-03-01T06:48:13.623Z,64.92
2018-03-01T06:50:45.410Z,64.62
2018-03-01T06:53:17.837Z,65.62
2018-03-01T06:55:47.048Z,65.46
2018-03-01T06:58:18.959Z,65.96
2018-03-01T07:00:50.226Z,66.93
2018-03-01T07:03:19.603Z,66.77
2018-03-01T07:05:50.367Z,66.78
2018-03-01T07:08:21.725Z,66.88
2018-03-01T07:10:52.305Z,67.73
2018-03-01T07:13:22.723Z,68.12
2018-03-01T07:15:54.439Z,67.61
2018-03-01T07:18:25.276Z,67.35
2018-03-01T07:20:55.724Z,67.13
2018-03-01T07:23:25.255Z,67.70
2018-03-01T07:25:56.898Z,67.57
2018-03-01T07:28:27.366Z,67.36
2018-03-01T07:30:58.026Z,67.32
2018-03-01T07:33:28.871Z,67.78
2018-03-01T07:36:00.046Z,68.02
2018-03-01T07:38:30.404Z,68.38
2018-03-01T07:41:01.092Z,68.31
2018-03-01T07:43:32.323Z,67.99
2018-03-01T07:46:03.505Z,68.12
2018-03-01T07:48:35.037Z,68.01
2018-03-01T07:51:04.634Z,67.98
2018-03-01T07:53:33.963Z,68.12
2018-03-01T07:56:04.759Z,67.90
2018-03-01T07:58:36.858Z,67.81
2018-03-01T08:01:07.400Z,68.20
2018-03-01T08:03:39.920Z,67.94
2018-03-01T08:06:09.559Z,67.71
2018-03-01T08:08:40.705Z,67.92
2018-03-01T08:11:11.243Z,67.69
2018-03-01T08:13:40.972Z,67.67
2018-03-01T08:16:11.588Z,67.79
2018-03-01T08:18:41.399Z,67.86
2018-03-01T08:21:12.410Z,68.21
2018-03-01T08:23:43.352Z,68.36
2018-03-01T08:26:14.433Z,67.69
2018-03-01T08:28:44.356Z,67.58
2018-03-01T08:31:13.703Z,67.48
2018-03-01T08:33:43.293Z,67.49
2018-03-01T08:36:12.544Z,67.05
2018-03-01T08:38:41.811Z,66.72
2018-03-01T08:41:10.948Z,66.57
2018-03-01T08:43:39.996Z,66.03
2018-03-01T08:46:09.079Z,65.56
2018-03-01T08:48:38.342Z,65.36
2018-03-01T08:51:07.111Z,65.01
2018-03-01T08:53:36.196Z,64.54
2018-03-01T08:56:05.233Z,64.08
2018-03-01T08:58:34.158Z,63.91
2018-03-01T09:01:03.713Z,63.81
2018-03-01T09:03:32.827Z,63.65
2018-03-01T09:06:01.830Z,63.61
2018-03-01T09:08:30.911Z,63.20
2018-03-01T09:11:00.322Z,62.97
2018-03-01T09:13:29.330Z,62.79
2018-03-01T09:15:58.610Z,62.44
2018-03-01T09:18:27.571Z,61.98
2018-03-01T09:20:57.044Z,61.77
2018-03-01T09:23:26.313Z,61.44
2018-03-01T09:25:55.202Z,60.42
2018-03-01T09:28:23.982Z,60.28
2018-03-01T09:30:53.599Z,59.62
2018-03-01T09:33:23.339Z,59.82
2018-03-01T09:35:52.679Z,59.82
2018-03-01T09:38:21.820Z,58.71
2018-03-01T09:40:50.931Z,59.02
2018-03-01T09:43:19.819Z,58.37
2018-03-01T09:45:48.822Z,58.40
2018-03-01T09:48:18.028Z,58.26
2018-03-01T09:50:46.834Z,58.29
2018-03-01T09:53:15.749Z,58.14
2018-03-01T09:55:45.214Z,58.53
2018-03-01T09:58:14.400Z,58.29
2018-03-01T10:00:43.402Z,57.79
2018-03-01T10:03:12.393Z,56.84
2018-03-01T10:05:41.248Z,56.63
2018-03-01T10:08:10.216Z,56.79
2018-03-01T10:10:39.155Z,56.04
2018-03-01T10:13:07.947Z,55.93
2018-03-01T10:15:36.743Z,55.90
2018-03-01T10:18:05.789Z,55.77
2018-03-01T10:20:34.892Z,55.07
2018-03-01T10:23:03.872Z,55.03
2018-03-01T10:25:32.781Z,54.83
2018-03-01T10:28:01.974Z,54.29
2018-03-01T10:30:30.808Z,53.84
2018-03-01T10:32:59.849Z,52.70
2018-03-01T10:35:28.904Z,52.47
2018-03-01T10:37:57.692Z,52.00
2018-03-01T10:40:26.732Z,51.57
2018-03-01T10:42:55.760Z,51.57
2018-03-01T10:45:24.960Z,51.67
2018-03-01T10:47:54.134Z,51.17
2018-03-01T10:50:22.971Z,50.86
2018-03-01T10:52:51.861Z,51.26
2018-03-01T10:55:20.716Z,51.55
2018-03-01T10:57:50.079Z,51.48
2018-03-01T11:00:24.465Z,50.96
2018-03-01T11:02:53.635Z,50.82
2018-03-01T11:05:22.606Z,50.69
2018-03-01T11:07:51.743Z,51.50
2018-03-01T11:10:20.764Z,51.31
2018-03-01T11:12:49.791Z,51.06
2018-03-01T11:15:18.795Z,51.05
2018-03-01T11:17:47.610Z,50.93
2018-03-01T11:20:16.557Z,50.56
2018-03-01T11:22:45.820Z,50.71
2018-03-01T11:25:14.611Z,50.59
2018-03-01T11:27:43.736Z,50.53
2018-03-01T11:30:12.845Z,49.30
2018-03-01T11:32:41.939Z,48.83
2018-03-01T11:35:10.691Z,47.38
2018-03-01T11:37:39.865Z,46.76
2018-03-01T11:40:09.132Z,46.37
2018-03-01T11:42:38.255Z,46.09
2018-03-01T11:45:07.477Z,45.85
2018-03-01T11:47:36.607Z,54.36
2018-03-01T11:50:05.716Z,48.05
2018-03-01T11:52:34.872Z,42.40
2018-03-01T11:55:04.034Z,42.38
2018-03-01T11:57:33.655Z,43.04
2018-03-01T12:00:04.185Z,42.71
2018-03-01T12:02:34.385Z,42.39
2018-03-01T12:05:06.259Z,43.11
2018-03-01T12:07:36.068Z,42.48
2018-03-01T12:10:06.825Z,42.55
2018-03-01T12:12:37.432Z,42.03
2018-03-01T12:15:08.172Z,41.95
2018-03-01T12:17:39.638Z,41.85
2018-03-01T12:20:10.196Z,42.05
2018-03-01T12:22:41.532Z,41.52
2018-03-01T12:25:12.304Z,40.87
2018-03-01T12:27:43.133Z,40.42
2018-03-01T12:30:13.988Z,39.63
2018-03-01T12:32:44.608Z,39.05
2018-03-01T12:35:15.380Z,38.50
2018-03-01T12:37:46.195Z,38.09
2018-03-01T12:40:17.158Z,38.19
2018-03-01T12:42:48.613Z,37.73
2018-03-01T12:45:20.005Z,37.72
2018-03-01T12:47:50.862Z,37.70
2018-03-01T12:50:21.686Z,37.34
2018-03-01T12:52:52.426Z,36.38
2018-03-01T12:55:23.804Z,36.75
2018-03-01T12:57:54.521Z,35.85
2018-03-01T13:00:24.992Z,35.61
2018-03-01T13:02:56.225Z,35.51
2018-03-01T13:05:27.727Z,35.67
2018-03-01T13:07:58.709Z,35.38
2018-03-01T13:10:41.444Z,35.14
2018-03-01T13:13:10.503Z,34.72
2018-03-01T13:15:39.831Z,34.20
2018-03-01T13:18:09.051Z,33.95
2018-03-01T13:20:38.023Z,34.17
2018-03-01T13:23:20.534Z,33.97
2018-03-01T13:25:49.525Z,33.76
2018-03-01T13:28:18.505Z,33.69
2018-03-01T13:30:48.546Z,33.38
2018-03-01T13:36:19.545Z,33.10
2018-03-01T13:38:48.674Z,33.30
2018-03-01T13:41:17.743Z,33.33
2018-03-01T13:43:46.643Z,33.34
2018-03-01T13:46:15.631Z,32.49
2018-03-01T13:48:44.599Z,32.45
2018-03-01T13:51:13.764Z,32.55
2018-03-01T13:53:42.586Z,32.96
2018-03-01T13:56:11.525Z,32.81
2018-03-01T13:58:40.601Z,32.97
2018-03-01T14:01:09.551Z,32.24
2018-03-01T14:03:38.590Z,32.31
2018-03-01T14:06:08.439Z,33.05
2018-03-01T14:08:37.449Z,32.52
2018-03-01T14:11:06.328Z,32.48
2018-03-01T14:13:42.434Z,32.07
2018-03-01T14:16:11.504Z,32.09
2018-03-01T14:21:45.087Z,32.12
2018-03-01T14:24:16.627Z,31.39
2018-03-01T14:27:01.302Z,31.58
2018-03-01T14:29:31.003Z,31.33
2018-03-01T14:31:59.730Z,31.39
2018-03-01T14:34:28.751Z,31.67
2018-03-01T14:36:57.984Z,32.17
2018-03-01T14:39:26.772Z,31.73
2018-03-01T14:41:55.934Z,31.70
2018-03-01T14:44:25.226Z,31.92
2018-03-01T14:46:54.075Z,32.02
2018-03-01T14:49:22.908Z,31.80
2018-03-01T14:51:52.129Z,31.97
2018-03-01T14:54:21.060Z,31.86
2018-03-01T14:56:50.043Z,31.93
2018-03-01T14:59:19.123Z,31.90
2018-03-01T15:01:47.920Z,32.08
2018-03-01T15:04:18.963Z,32.05
2018-03-01T15:06:47.824Z,31.71
2018-03-01T15:09:16.707Z,32.16
2018-03-01T15:11:45.772Z,32.19
2018-03-01T15:14:14.784Z,32.04
2018-03-01T15:16:43.674Z,32.30
2018-03-01T15:19:13.256Z,32.61
2018-03-01T15:21:42.090Z,33.08
2018-03-01T15:24:10.879Z,33.76
2018-03-01T15:26:39.712Z,33.64
2018-03-01T15:29:09.433Z,33.78
2018-03-01T15:31:38.611Z,34.35
2018-03-01T15:34:07.524Z,34.31
2018-03-01T15:36:36.648Z,34.31
2018-03-01T15:39:05.052Z,34.62
2018-03-01T15:41:34.268Z,34.63
2018-03-01T15:44:04.124Z,34.70
2018-03-01T15:46:33.940Z,34.83
2018-03-01T15:49:03.347Z,35.32
2018-03-01T15:51:32.506Z,35.63
2018-03-01T15:54:01.453Z,35.80
2018-03-01T15:56:30.617Z,35.98
2018-03-01T15:58:59.764Z,36.30
2018-03-01T16:01:30.468Z,35.97
2018-03-01T16:04:00.183Z,36.63
2018-03-01T16:06:30.931Z,36.63
2018-03-01T16:09:00.762Z,37.23
2018-03-01T16:11:31.412Z,37.48
2018-03-01T16:14:02.141Z,37.68
2018-03-01T16:16:33.514Z,37.78
2018-03-01T16:19:04.331Z,38.09
2018-03-01T16:21:35.702Z,38.05
2018-03-01T16:24:06.326Z,38.50
2018-03-01T16:26:37.430Z,39.07
2018-03-01T16:29:08.300Z,39.58
2018-03-01T16:31:39.230Z,39.50
2018-03-01T16:34:15.395Z,39.69
2018-03-01T16:36:44.571Z,40.45
2018-03-01T16:39:13.837Z,40.68
2018-03-01T16:41:44.511Z,40.58
2018-03-01T16:44:14.997Z,41.08
2018-03-01T16:46:45.971Z,41.05
2018-03-01T16:49:17.392Z,40.86
2018-03-01T16:51:48.041Z,41.27
2018-03-01T16:54:18.790Z,41.39
2018-03-01T16:56:49.832Z,41.20
2018-03-01T16:59:21.839Z,41.55
2018-03-01T17:01:52.453Z,42.43
2018-03-01T17:04:23.340Z,41.98
2018-03-01T17:06:54.889Z,42.82
2018-03-01T17:09:24.472Z,42.87
2018-03-01T17:11:55.025Z,42.71
2018-03-01T17:14:26.643Z,42.97
2018-03-01T17:16:56.108Z,43.44
2018-03-01T17:19:26.910Z,43.53
2018-03-01T17:21:57.882Z,43.64
2018-03-01T17:24:28.886Z,44.01
2018-03-01T17:26:59.884Z,44.63
2018-03-01T17:29:30.791Z,44.83
2018-03-01T17:32:01.407Z,45.55
2018-03-01T17:34:31.861Z,45.88
2018-03-01T17:37:02.490Z,45.61
2018-03-01T17:39:33.963Z,45.51
2018-03-01T17:42:04.955Z,45.38
2018-03-01T17:44:35.896Z,45.68
2018-03-01T17:47:06.677Z,45.76
2018-03-01T17:49:37.683Z,45.99
2018-03-01T17:52:09.543Z,45.72
2018-03-01T17:54:39.253Z,46.13
2018-03-01T17:57:10.595Z,45.98
2018-03-01T17:59:41.512Z,46.47
2018-03-01T18:02:12.165Z,46.78
2018-03-01T18:04:42.876Z,47.37
2018-03-01T18:07:15.939Z,47.01
2018-03-01T18:09:45.505Z,47.28
2018-03-01T18:12:16.115Z,47.88
2018-03-01T18:14:46.832Z,47.49
2018-03-01T18:17:17.821Z,47.76
2018-03-01T18:19:48.719Z,47.60
2018-03-01T18:22:19.642Z,48.03
2018-03-01T18:24:50.595Z,49.02
2018-03-01T18:27:22.831Z,49.51
2018-03-01T18:29:53.354Z,49.29
2018-03-01T18:32:24.047Z,49.63
2018-03-01T18:34:55.065Z,49.17
2018-03-01T18:37:25.737Z,49.48
2018-03-01T18:39:56.541Z,49.97
2018-03-01T18:42:28.080Z,56.06
2018-03-01T18:45:00.429Z,49.76
2018-03-01T18:47:30.858Z,49.46
2018-03-01T18:50:02.111Z,49.06
2018-03-01T18:52:32.843Z,49.26
2018-03-01T18:55:03.411Z,49.97
2018-03-01T18:57:33.796Z,50.52
2018-03-01T19:00:04.734Z,50.05
2018-03-01T19:02:35.598Z,50.17
2018-03-01T19:05:06.167Z,50.57
2018-03-01T19:07:37.800Z,51.10
2018-03-01T19:10:08.224Z,50.62
2018-03-01T19:12:39.284Z,51.13
2018-03-01T19:15:10.151Z,51.16
2018-03-01T19:17:41.011Z,51.28
2018-03-01T19:20:10.940Z,51.64
2018-03-01T19:22:43.437Z,50.93
2018-03-01T19:25:14.065Z,50.80
2018-03-01T19:27:44.982Z,51.88
2018-03-01T19:37:17.061Z,51.61
2018-03-01T19:39:45.892Z,51.44
2018-03-01T19:42:14.720Z,51.71
2018-03-01T19:44:43.841Z,51.64
2018-03-01T19:47:12.741Z,52.09
2018-03-01T19:49:41.808Z,51.87
2018-03-01T19:52:10.783Z,52.11
2018-03-01T19:54:39.789Z,51.60
2018-03-01T19:57:08.597Z,51.43
2018-03-01T19:59:37.867Z,51.51
2018-03-01T20:02:06.802Z,51.54
2018-03-01T20:04:35.823Z,51.50
2018-03-01T20:07:04.563Z,52.14
2018-03-01T20:09:33.780Z,52.25
2018-03-01T20:12:02.785Z,52.44
2018-03-01T20:14:31.830Z,53.33
2018-03-01T20:17:01.106Z,52.64
2018-03-01T20:19:30.128Z,52.96
2018-03-01T20:21:59.015Z,53.52
2018-03-01T20:24:27.861Z,52.85
2018-03-01T20:26:56.791Z,52.60
2018-03-01T20:29:25.921Z,53.29
2018-03-01T20:31:54.767Z,52.67
2018-03-01T20:34:23.815Z,53.10
2018-03-01T20:36:52.825Z,53.07
2018-03-01T20:39:22.480Z,53.38
2018-03-01T20:41:51.585Z,53.25
2018-03-01T20:44:20.768Z,53.35
2018-03-01T20:46:49.700Z,52.88
2018-03-01T20:49:18.724Z,52.87
2018-03-01T20:51:47.935Z,53.56
2018-03-01T20:54:16.855Z,53.13
2018-03-01T20:56:45.705Z,53.25
2018-03-01T20:59:14.931Z,53.58
2018-03-01T21:01:43.821Z,54.02
2018-03-01T21:04:13.651Z,54.07
2018-03-01T21:06:42.885Z,53.96
2018-03-01T21:09:11.823Z,54.92
2018-03-01T21:11:41.536Z,54.15
2018-03-01T21:14:10.569Z,54.41
2018-03-01T21:16:39.769Z,54.01
2018-03-01T21:19:08.621Z,54.80
2018-03-01T21:21:37.890Z,54.63
2018-03-01T21:24:06.751Z,61.94
2018-03-01T21:26:35.433Z,57.44
2018-03-01T21:29:04.402Z,55.14
2018-03-01T21:31:33.506Z,55.44
2018-03-01T21:34:02.620Z,55.05
2018-03-01T21:36:31.731Z,55.13
2018-03-01T21:39:00.643Z,55.14
2018-03-01T21:41:29.683Z,54.66
2018-03-01T21:43:59.311Z,55.65
2018-03-01T21:46:28.613Z,54.71
2018-03-01T21:48:57.684Z,55.26
2018-03-01T21:51:27.280Z,55.24
2018-03-01T21:53:56.136Z,55.02
2018-03-01T21:56:24.643Z,54.75
2018-03-01T21:58:54.446Z,55.15
2018-03-01T22:01:23.593Z,55.73
2018-03-01T22:03:52.991Z,55.68
2018-03-01T22:06:22.231Z,55.70
2018-03-01T22:08:51.360Z,55.76
2018-03-01T22:11:20.480Z,56.11
2018-03-01T22:13:55.637Z,56.07
2018-03-01T22:16:24.767Z,55.59
2018-03-01T22:18:53.890Z,55.56
2018-03-01T22:21:23.199Z,56.11
2018-03-01T22:23:52.419Z,55.36
2018-03-01T22:26:21.498Z,55.33
2018-03-01T22:28:50.654Z,55.70
2018-03-01T22:31:19.978Z,57.68
2018-03-01T22:33:49.777Z,56.64
2018-03-01T22:36:21.570Z,56.72
2018-03-01T22:38:51.321Z,56.34
2018-03-01T22:41:22.776Z,56.42
2018-03-01T22:43:52.768Z,56.56
2018-03-01T22:46:23.153Z,56.88
2018-03-01T22:48:54.143Z,56.16
2018-03-01T22:51:25.296Z,56.61
2018-03-01T22:53:57.582Z,56.75
2018-03-01T22:56:28.022Z,56.61
2018-03-01T22:58:58.841Z,56.72
2018-03-01T23:01:30.736Z,57.23
2018-03-01T23:04:01.345Z,57.24
2018-03-01T23:06:33.026Z,57.52
2018-03-01T23:09:03.238Z,58.14
2018-03-01T23:11:33.560Z,58.46
2018-03-01T23:14:03.563Z,57.57
2018-03-01T23:16:32.764Z,57.70
2018-03-01T23:19:03.436Z,58.18
2018-03-01T23:21:34.111Z,58.40
2018-03-01T23:24:06.584Z,58.37
2018-03-01T23:26:38.093Z,58.45
2018-03-01T23:29:09.152Z,58.39
2018-03-01T23:31:40.284Z,58.32
2018-03-01T23:34:10.631Z,58.63
2018-03-01T23:36:41.712Z,58.58
2018-03-01T23:39:13.290Z,58.82
2018-03-01T23:41:44.503Z,59.09
2018-03-01T23:44:14.952Z,59.22
2018-03-01T23:46:46.493Z,59.83
2018-03-01T23:49:21.343Z,59.04
2018-03-01T23:51:53.586Z,59.59
2018-03-01T23:54:22.857Z,59.45
2018-03-01T23:56:51.868Z,59.29
2018-03-01T23:59:22.440Z,59.96
